createdAt,value
2023-02-03T00:03:21.570Z,17.73
2023-02-03T00:08:36.199Z,17.74
2023-02-03T00:13:51.439Z,17.74
2023-02-03T00:19:06.844Z,17.72
2023-02-03T00:24:22.475Z,17.74
2023-02-03T00:29:37.456Z,17.72
2023-02-03T00:34:52.517Z,17.71
2023-02-03T00:40:07.422Z,17.69
2023-02-03T00:45:22.733Z,17.68
2023-02-03T00:50:38.219Z,17.68
2023-02-03T00:55:53.453Z,17.75
2023-02-03T01:01:08.323Z,17.77
2023-02-03T01:06:24.795Z,17.74
2023-02-03T01:11:40.436Z,17.76
2023-02-03T01:16:56.826Z,17.78
2023-02-03T01:22:12.782Z,17.79
2023-02-03T01:27:28.746Z,17.79
2023-02-03T01:32:44.743Z,17.79
2023-02-03T01:38:00.411Z,17.80
2023-02-03T01:43:15.440Z,17.80
2023-02-03T01:48:30.427Z,17.81
2023-02-03T01:53:45.766Z,17.81
2023-02-03T01:59:01.436Z,17.77
2023-02-03T02:04:16.750Z,17.79
2023-02-03T02:09:32.436Z,17.80
2023-02-03T02:14:47.209Z,17.80
2023-02-03T02:20:02.807Z,17.79
2023-02-03T02:25:18.421Z,17.81
2023-02-03T02:30:33.832Z,17.81
2023-02-03T02:35:49.447Z,17.84
2023-02-03T02:41:04.562Z,17.83
2023-02-03T02:46:20.505Z,17.81
2023-02-03T02:51:36.455Z,17.81
2023-02-03T02:56:51.445Z,17.86
2023-02-03T03:02:06.729Z,17.87
2023-02-03T03:07:22.773Z,17.91
2023-02-03T03:12:38.475Z,17.88
2023-02-03T03:17:54.445Z,17.87
2023-02-03T03:23:09.443Z,17.86
2023-02-03T03:28:24.755Z,17.85
2023-02-03T03:33:40.746Z,17.86
2023-02-03T03:38:56.747Z,17.86
2023-02-03T03:44:12.534Z,17.87
2023-02-03T03:49:27.220Z,17.86
2023-02-03T03:54:42.205Z,17.88
2023-02-03T03:59:57.524Z,17.88
2023-02-03T04:05:19.441Z,17.87
2023-02-03T04:10:34.474Z,17.87
2023-02-03T04:15:49.473Z,17.86
2023-02-03T04:21:04.495Z,17.85
2023-02-03T04:26:19.504Z,17.85
2023-02-03T04:31:34.514Z,17.86
2023-02-03T04:36:49.493Z,17.85
2023-02-03T04:42:04.456Z,17.84
2023-02-03T04:47:19.454Z,17.85
2023-02-03T04:52:34.190Z,17.83
2023-02-03T04:57:49.513Z,17.84
2023-02-03T05:03:04.772Z,17.81
2023-02-03T05:08:20.222Z,17.83
2023-02-03T05:13:35.202Z,17.81
2023-02-03T05:18:50.449Z,17.85
2023-02-03T05:24:05.490Z,17.86
2023-02-03T05:29:20.453Z,17.85
2023-02-03T05:34:35.473Z,17.87
2023-02-03T05:39:50.198Z,17.91
2023-02-03T05:45:05.500Z,17.91
2023-02-03T05:50:20.469Z,17.89
2023-02-03T05:55:35.469Z,17.88
2023-02-03T06:00:50.508Z,17.85
2023-02-03T06:06:05.802Z,17.82
2023-02-03T06:11:21.500Z,17.79
2023-02-03T06:16:36.517Z,17.76
2023-02-03T06:21:51.471Z,17.74
2023-02-03T06:27:06.495Z,17.72
2023-02-03T06:32:21.451Z,17.70
2023-02-03T06:37:36.454Z,17.67
2023-02-03T06:42:51.766Z,17.66
2023-02-03T06:48:07.484Z,17.63
2023-02-03T06:53:22.497Z,17.60
2023-02-03T06:58:37.520Z,17.58
2023-02-03T07:03:53.978Z,17.58
2023-02-03T07:09:09.545Z,17.56
2023-02-03T07:14:25.542Z,17.54
2023-02-03T07:19:40.526Z,17.52
2023-02-03T07:24:55.731Z,17.50
2023-02-03T07:30:11.463Z,17.48
2023-02-03T07:35:26.770Z,17.46
2023-02-03T07:40:42.542Z,17.45
2023-02-03T07:45:57.566Z,17.44
2023-02-03T07:51:12.528Z,17.42
2023-02-03T07:56:27.843Z,17.39
2023-02-03T08:01:43.599Z,17.38
2023-02-03T08:06:58.291Z,17.37
2023-02-03T08:12:13.526Z,17.35
2023-02-03T08:17:28.534Z,17.33
2023-02-03T08:22:43.438Z,17.33
2023-02-03T08:27:58.591Z,17.31
2023-02-03T08:33:13.266Z,17.30
2023-02-03T08:38:28.523Z,17.28
2023-02-03T08:43:43.524Z,17.26
2023-02-03T08:48:58.909Z,17.25
2023-02-03T08:54:14.509Z,17.25
2023-02-03T08:59:29.631Z,17.23
2023-02-03T09:04:44.912Z,17.22
2023-02-03T09:10:00.575Z,17.19
2023-02-03T09:15:15.491Z,17.16
2023-02-03T09:20:30.984Z,17.15
2023-02-03T09:25:49.451Z,17.13
2023-02-03T09:31:04.544Z,17.11
2023-02-03T09:36:19.325Z,17.11
2023-02-03T09:41:34.556Z,17.08
2023-02-03T09:46:49.549Z,17.06
2023-02-03T09:52:04.516Z,17.05
2023-02-03T09:57:19.570Z,17.02
2023-02-03T10:02:34.613Z,17.01
2023-02-03T10:07:50.933Z,17.00
2023-02-03T10:13:07.542Z,16.99
2023-02-03T10:18:22.865Z,16.96
2023-02-03T10:23:38.640Z,16.93
2023-02-03T10:28:53.624Z,16.91
2023-02-03T10:34:08.543Z,16.90
2023-02-03T10:39:23.493Z,16.89
2023-02-03T10:44:38.664Z,16.87
2023-02-03T10:49:53.510Z,16.84
2023-02-03T10:55:08.502Z,16.82
2023-02-03T11:00:23.611Z,16.81
2023-02-03T11:05:38.231Z,16.80
2023-02-03T11:10:53.494Z,16.79
2023-02-03T11:16:08.352Z,16.79
2023-02-03T11:21:23.475Z,16.77
2023-02-03T11:26:38.537Z,16.74
2023-02-03T11:31:53.879Z,16.73
2023-02-03T11:37:09.842Z,16.72
2023-02-03T11:42:25.722Z,16.72
2023-02-03T11:47:41.484Z,16.72
2023-02-03T11:52:56.817Z,16.70
2023-02-03T11:58:12.467Z,16.64
2023-02-03T12:03:27.472Z,16.65
2023-02-03T12:08:42.290Z,16.64
2023-02-03T12:13:57.790Z,16.63
2023-02-03T12:19:13.447Z,16.62
2023-02-03T12:24:28.606Z,16.62
2023-02-03T12:29:43.525Z,16.64
2023-02-03T12:34:58.596Z,16.62
2023-02-03T12:40:13.520Z,16.61
2023-02-03T12:45:28.619Z,16.61
2023-02-03T12:50:43.262Z,16.60
2023-02-03T12:55:58.475Z,16.57
2023-02-03T13:01:13.539Z,16.56
2023-02-03T13:06:28.538Z,16.56
2023-02-03T13:11:43.875Z,16.53
2023-02-03T13:16:59.581Z,16.55
2023-02-03T13:22:14.525Z,16.56
2023-02-03T13:27:29.532Z,16.57
2023-02-03T13:32:44.532Z,16.58
2023-02-03T13:38:00.776Z,16.56
2023-02-03T13:43:28.418Z,16.56
2023-02-03T13:48:51.513Z,16.56
2023-02-03T13:54:06.763Z,16.54
2023-02-03T13:59:22.530Z,16.54
2023-02-03T14:04:37.556Z,16.53
2023-02-03T14:09:52.277Z,16.52
2023-02-03T14:15:07.920Z,16.52
2023-02-03T14:20:23.490Z,16.51
2023-02-03T14:26:15.268Z,16.49
2023-02-03T14:31:30.656Z,16.48
2023-02-03T14:36:45.499Z,16.46
2023-02-03T14:42:00.612Z,16.47
2023-02-03T14:47:15.515Z,16.47
2023-02-03T14:52:30.283Z,16.48
2023-02-03T14:57:45.535Z,16.46
2023-02-03T15:03:00.607Z,16.45
2023-02-03T15:08:15.485Z,16.45
2023-02-03T15:13:30.844Z,16.44
2023-02-03T15:18:46.834Z,16.44
2023-02-03T15:24:02.952Z,16.45
2023-02-03T15:29:18.501Z,16.45
2023-02-03T15:34:33.511Z,16.44
2023-02-03T15:39:48.501Z,16.44
2023-02-03T15:45:03.837Z,16.46
2023-02-03T15:50:19.519Z,16.47
2023-02-03T15:55:34.557Z,16.46
2023-02-03T16:00:49.312Z,16.47
2023-02-03T16:06:04.540Z,16.48
2023-02-03T16:11:19.513Z,16.47
2023-02-03T16:16:34.593Z,16.48
2023-02-03T16:21:49.572Z,16.45
2023-02-03T16:27:04.524Z,16.43
2023-02-03T16:32:19.509Z,16.45
2023-02-03T16:37:34.508Z,16.44
2023-02-03T16:42:49.267Z,16.44
2023-02-03T16:48:04.505Z,16.43
2023-02-03T16:53:19.347Z,16.42
2023-02-03T16:58:34.523Z,16.41
2023-02-03T17:03:49.259Z,16.40
2023-02-03T17:09:04.523Z,16.40
2023-02-03T17:14:19.608Z,16.41
2023-02-03T17:19:34.526Z,16.40
2023-02-03T17:24:49.563Z,16.39
2023-02-03T17:30:04.622Z,16.36
2023-02-03T17:35:19.557Z,16.34
2023-02-03T17:57:12.626Z,16.24
2023-02-03T18:02:28.351Z,16.27
2023-02-03T18:07:44.890Z,16.29
2023-02-03T18:13:00.568Z,16.29
2023-02-03T18:18:15.273Z,16.29
2023-02-03T18:23:30.519Z,16.30
2023-02-03T18:28:45.515Z,16.31
2023-02-03T18:34:00.484Z,16.31
2023-02-03T18:39:15.513Z,16.32
2023-02-03T18:44:30.541Z,16.33
2023-02-03T18:49:45.556Z,16.32
2023-02-03T18:55:00.511Z,16.32
2023-02-03T19:00:15.482Z,16.33
2023-02-03T19:05:30.259Z,16.32
2023-02-03T19:10:45.536Z,16.33
2023-02-03T19:16:00.387Z,16.33
2023-02-03T19:21:16.539Z,16.33
2023-02-03T19:26:31.526Z,16.32
2023-02-03T19:31:46.556Z,16.32
2023-02-03T19:37:01.621Z,16.32
2023-02-03T19:42:16.514Z,16.32
2023-02-03T19:47:31.358Z,16.31
2023-02-03T19:52:46.649Z,16.42
2023-02-03T19:58:01.842Z,16.50
2023-02-03T20:03:17.535Z,16.55
2023-02-03T20:08:32.547Z,16.60
2023-02-03T20:13:47.555Z,16.63
2023-02-03T20:19:02.788Z,16.69
2023-02-03T20:24:18.555Z,16.74
2023-02-03T20:29:33.561Z,16.78
2023-02-03T20:34:48.531Z,16.80
2023-02-03T20:40:03.601Z,16.81
2023-02-03T20:45:18.822Z,16.87
2023-02-03T20:50:42.184Z,16.89
2023-02-03T20:55:58.835Z,16.91
2023-02-03T21:01:14.591Z,16.93
2023-02-03T21:06:29.564Z,16.95
2023-02-03T21:11:44.518Z,16.97
2023-02-03T21:16:59.580Z,16.98
2023-02-03T21:22:14.280Z,17.01
2023-02-03T21:27:29.336Z,17.03
2023-02-03T21:32:44.600Z,17.05
2023-02-03T21:37:59.926Z,17.05
2023-02-03T21:43:15.855Z,17.07
2023-02-03T21:48:31.567Z,17.08
2023-02-03T21:53:46.526Z,17.09
2023-02-03T21:59:01.570Z,17.10
2023-02-03T22:04:16.552Z,17.10
2023-02-03T22:09:31.299Z,17.11
2023-02-03T22:14:46.532Z,17.13
2023-02-03T22:20:01.637Z,17.18
2023-02-03T22:25:16.566Z,17.19
2023-02-03T22:30:31.997Z,17.20
2023-02-03T22:35:47.343Z,17.19
2023-02-03T22:41:02.281Z,17.23
2023-02-03T22:46:17.362Z,17.24
2023-02-03T22:51:32.544Z,17.24
2023-02-03T22:56:47.609Z,17.24
2023-02-03T23:02:02.518Z,17.24
2023-02-03T23:07:17.352Z,17.22
2023-02-03T23:12:32.572Z,17.22
2023-02-03T23:17:47.626Z,17.19
2023-02-03T23:23:03.584Z,17.21
2023-02-03T23:28:18.346Z,17.20
2023-02-03T23:33:33.564Z,17.21
2023-02-03T23:38:48.958Z,17.19
2023-02-03T23:44:04.558Z,17.20
2023-02-03T23:49:19.879Z,17.18
2023-02-03T23:54:35.514Z,17.19
2023-02-03T23:59:50.533Z,17.19
